createdAt,value
2022-12-03T00:02:19.131Z,7.80
2022-12-03T00:04:47.797Z,8.37
2022-12-03T00:07:14.743Z,8.53
2022-12-03T00:09:41.318Z,7.81
2022-12-03T00:12:08.422Z,8.39
2022-12-03T00:14:38.853Z,8.33
2022-12-03T00:17:10.105Z,8.45
2022-12-03T00:19:40.185Z,8.41
2022-12-03T00:22:11.700Z,8.41
2022-12-03T00:24:39.850Z,8.30
2022-12-03T00:27:06.597Z,8.03
2022-12-03T00:29:33.552Z,8.30
2022-12-03T00:32:03.209Z,8.21
2022-12-03T00:34:32.689Z,8.24
2022-12-03T00:37:02.105Z,8.17
2022-12-03T00:39:28.831Z,7.83
2022-12-03T00:41:55.630Z,8.23
2022-12-03T00:44:22.284Z,8.18
2022-12-03T00:46:49.123Z,8.18
2022-12-03T00:49:15.907Z,8.07
2022-12-03T00:51:44.773Z,7.32
2022-12-03T00:54:11.681Z,8.03
2022-12-03T00:56:41.093Z,8.12
2022-12-03T00:59:10.960Z,8.04
2022-12-03T01:01:41.499Z,7.96
2022-12-03T01:04:08.376Z,7.95
2022-12-03T01:06:38.559Z,8.01
2022-12-03T01:09:05.446Z,7.82
2022-12-03T01:11:37.985Z,7.97
2022-12-03T01:14:21.475Z,8.03
2022-12-03T01:16:48.408Z,8.09
2022-12-03T01:19:16.581Z,7.93
2022-12-03T01:21:45.138Z,8.08
2022-12-03T01:24:12.205Z,7.82
2022-12-03T01:26:39.101Z,7.88
2022-12-03T01:29:06.655Z,7.85
2022-12-03T01:31:56.029Z,7.69
2022-12-03T01:34:23.273Z,7.82
2022-12-03T01:36:54.722Z,7.66
2022-12-03T01:39:24.499Z,7.76
2022-12-03T01:41:58.803Z,7.95
2022-12-03T01:44:32.524Z,7.82
2022-12-03T01:47:05.252Z,7.95
2022-12-03T01:49:35.730Z,7.66
2022-12-03T01:52:02.568Z,7.70
2022-12-03T01:54:38.283Z,7.86
2022-12-03T01:57:07.894Z,7.48
2022-12-03T01:59:38.999Z,7.82
2022-12-03T02:02:13.257Z,7.70
2022-12-03T02:04:45.426Z,7.64
2022-12-03T02:07:17.685Z,7.85
2022-12-03T02:09:45.771Z,7.52
2022-12-03T02:12:18.038Z,7.81
2022-12-03T02:14:44.920Z,7.37
2022-12-03T02:17:15.203Z,7.89
2022-12-03T02:19:41.839Z,7.80
2022-12-03T02:22:19.475Z,7.99
2022-12-03T02:24:59.120Z,7.99
2022-12-03T02:27:28.332Z,7.86
2022-12-03T02:29:55.095Z,7.99
2022-12-03T02:32:23.605Z,8.05
2022-12-03T02:34:52.070Z,7.61
2022-12-03T02:37:27.831Z,7.74
2022-12-03T02:39:57.289Z,7.93
2022-12-03T02:42:36.647Z,7.92
2022-12-03T02:45:14.181Z,7.72
2022-12-03T02:47:45.399Z,7.78
2022-12-03T02:50:15.266Z,8.03
2022-12-03T02:52:46.950Z,7.81
2022-12-03T02:55:15.817Z,7.89
2022-12-03T02:57:45.970Z,7.72
2022-12-03T03:00:19.593Z,7.63
2022-12-03T03:02:50.995Z,7.80
2022-12-03T03:05:23.536Z,7.91
2022-12-03T03:07:51.581Z,7.86
2022-12-03T03:10:23.824Z,7.73
2022-12-03T03:12:52.765Z,7.64
2022-12-03T03:15:20.276Z,7.90
2022-12-03T03:17:50.182Z,7.76
2022-12-03T03:20:17.006Z,7.83
2022-12-03T03:22:46.771Z,7.84
2022-12-03T03:25:20.710Z,7.69
2022-12-03T03:27:48.450Z,7.81
2022-12-03T03:30:15.428Z,7.84
2022-12-03T03:32:46.006Z,7.83
2022-12-03T03:35:18.001Z,7.93
2022-12-03T03:37:44.794Z,7.53
2022-12-03T03:40:14.682Z,7.95
2022-12-03T03:42:41.765Z,7.87
2022-12-03T03:45:09.816Z,6.97
2022-12-03T03:47:37.272Z,7.77
2022-12-03T03:50:04.440Z,7.90
2022-12-03T03:52:31.391Z,7.86
2022-12-03T03:54:58.364Z,7.80
2022-12-03T03:57:25.081Z,7.52
2022-12-03T03:59:51.722Z,7.84
2022-12-03T04:02:24.763Z,7.91
2022-12-03T04:04:56.228Z,7.23
2022-12-03T04:07:25.066Z,7.74
2022-12-03T04:09:54.138Z,7.71
2022-12-03T04:12:40.830Z,7.65
2022-12-03T04:15:08.139Z,7.44
2022-12-03T04:17:34.770Z,7.61
2022-12-03T04:20:01.332Z,7.37
2022-12-03T04:22:40.305Z,7.36
2022-12-03T04:25:28.337Z,7.56
2022-12-03T04:28:13.597Z,7.58
2022-12-03T04:30:40.301Z,7.45
2022-12-03T04:33:28.841Z,7.55
2022-12-03T04:35:55.651Z,7.56
2022-12-03T04:38:25.707Z,7.66
2022-12-03T04:41:01.255Z,7.52
2022-12-03T04:43:28.747Z,7.43
2022-12-03T04:46:00.889Z,7.49
2022-12-03T04:48:30.019Z,7.56
2022-12-03T04:50:57.569Z,7.45
2022-12-03T04:53:24.386Z,7.55
2022-12-03T04:55:51.083Z,7.60
2022-12-03T04:58:19.833Z,7.43
2022-12-03T05:00:49.359Z,6.89
2022-12-03T05:03:17.959Z,7.36
2022-12-03T05:05:44.572Z,7.53
2022-12-03T05:08:11.304Z,7.59
2022-12-03T05:10:38.580Z,7.54
2022-12-03T05:13:05.286Z,7.55
2022-12-03T05:15:32.155Z,7.60
2022-12-03T05:17:58.846Z,7.39
2022-12-03T05:20:53.911Z,7.55
2022-12-03T05:23:27.182Z,7.43
2022-12-03T05:25:56.674Z,7.62
2022-12-03T05:28:26.628Z,6.70
2022-12-03T05:30:53.407Z,7.23
2022-12-03T05:33:20.648Z,7.51
2022-12-03T05:35:54.149Z,7.49
2022-12-03T05:38:20.807Z,7.48
2022-12-03T05:40:47.770Z,7.19
2022-12-03T05:43:17.649Z,6.94
2022-12-03T05:45:50.369Z,6.97
2022-12-03T05:48:20.364Z,6.04
2022-12-03T05:50:50.383Z,6.84
2022-12-03T05:53:18.604Z,7.29
2022-12-03T05:55:53.862Z,7.37
2022-12-03T05:58:21.752Z,7.57
2022-12-03T06:00:50.807Z,7.16
2022-12-03T06:03:17.576Z,7.34
2022-12-03T06:05:44.584Z,7.62
2022-12-03T06:08:11.285Z,7.47
2022-12-03T06:10:38.086Z,7.56
2022-12-03T06:13:04.665Z,7.33
2022-12-03T06:15:36.344Z,7.17
2022-12-03T06:18:12.827Z,7.39
2022-12-03T06:20:39.838Z,7.47
2022-12-03T06:23:06.481Z,7.51
2022-12-03T06:25:35.954Z,7.21
2022-12-03T06:28:02.635Z,7.40
2022-12-03T06:30:29.276Z,7.42
2022-12-03T06:32:58.246Z,7.26
2022-12-03T06:35:24.990Z,7.28
2022-12-03T06:37:55.764Z,7.31
2022-12-03T06:40:24.611Z,7.42
2022-12-03T06:42:53.941Z,6.92
2022-12-03T06:45:20.691Z,6.79
2022-12-03T06:47:47.369Z,7.25
2022-12-03T06:50:14.507Z,7.63
2022-12-03T06:52:41.200Z,7.50
2022-12-03T06:55:08.371Z,7.52
2022-12-03T06:57:36.143Z,7.67
2022-12-03T07:00:04.104Z,7.62
2022-12-03T07:02:30.867Z,7.45
2022-12-03T07:04:58.226Z,7.62
2022-12-03T07:07:26.701Z,7.62
2022-12-03T07:09:55.924Z,7.60
2022-12-03T07:12:22.580Z,7.59
2022-12-03T07:14:49.292Z,7.55
2022-12-03T07:17:17.165Z,7.29
2022-12-03T07:19:43.822Z,7.52
2022-12-03T07:22:10.589Z,7.51
2022-12-03T07:24:37.294Z,7.15
2022-12-03T07:27:04.070Z,7.47
2022-12-03T07:29:30.716Z,7.51
2022-12-03T07:31:57.355Z,7.51
2022-12-03T07:34:27.672Z,7.37
2022-12-03T07:36:54.511Z,7.60
2022-12-03T07:39:21.215Z,7.65
2022-12-03T07:41:47.867Z,7.21
2022-12-03T07:44:15.160Z,6.17
2022-12-03T07:46:42.571Z,6.71
2022-12-03T07:49:12.527Z,7.46
2022-12-03T07:51:39.482Z,7.66
2022-12-03T07:54:06.382Z,7.57
2022-12-03T07:56:33.030Z,7.71
2022-12-03T07:58:59.641Z,7.06
2022-12-03T08:01:26.419Z,7.31
2022-12-03T08:03:53.393Z,6.98
2022-12-03T08:06:29.038Z,7.01
2022-12-03T08:08:58.850Z,7.75
2022-12-03T08:11:29.048Z,7.00
2022-12-03T08:13:59.533Z,7.25
2022-12-03T08:16:27.237Z,7.82
2022-12-03T08:18:57.646Z,7.03
2022-12-03T08:21:24.361Z,7.83
2022-12-03T08:23:51.106Z,7.82
2022-12-03T08:26:24.032Z,7.77
2022-12-03T08:28:51.995Z,7.91
2022-12-03T08:31:33.755Z,7.39
2022-12-03T08:34:15.981Z,7.86
2022-12-03T08:36:42.839Z,6.83
2022-12-03T08:39:29.859Z,8.00
2022-12-03T08:42:21.193Z,7.87
2022-12-03T08:44:51.086Z,7.96
2022-12-03T08:47:27.487Z,7.62
2022-12-03T08:50:01.658Z,7.78
2022-12-03T08:52:32.541Z,8.10
2022-12-03T08:55:00.676Z,8.15
2022-12-03T08:57:34.693Z,8.03
2022-12-03T09:00:18.622Z,8.01
2022-12-03T09:02:51.713Z,8.06
2022-12-03T09:05:32.951Z,7.99
2022-12-03T09:08:00.355Z,8.11
2022-12-03T09:10:27.065Z,8.00
2022-12-03T09:12:53.837Z,8.08
2022-12-03T09:15:20.461Z,8.03
2022-12-03T09:17:47.253Z,7.48
2022-12-03T09:20:14.472Z,7.90
2022-12-03T09:22:41.337Z,8.02
2022-12-03T09:25:09.133Z,7.79
2022-12-03T09:27:35.895Z,7.33
2022-12-03T09:30:03.649Z,7.73
2022-12-03T09:32:30.570Z,8.01
2022-12-03T09:34:58.770Z,8.19
2022-12-03T09:37:25.666Z,8.09
2022-12-03T09:39:54.637Z,8.09
2022-12-03T09:42:21.837Z,8.17
2022-12-03T09:44:48.951Z,8.24
2022-12-03T09:47:15.629Z,8.17
2022-12-03T09:49:43.274Z,8.26
2022-12-03T09:52:16.916Z,7.90
2022-12-03T09:54:52.136Z,8.06
2022-12-03T09:57:19.826Z,7.97
2022-12-03T09:59:51.393Z,7.94
2022-12-03T10:02:29.298Z,8.17
2022-12-03T10:04:57.667Z,8.26
2022-12-03T10:07:25.595Z,8.13
2022-12-03T10:09:53.239Z,8.25
2022-12-03T10:12:24.776Z,8.12
2022-12-03T10:14:52.917Z,7.68
2022-12-03T10:17:22.151Z,8.33
2022-12-03T10:19:54.935Z,8.15
2022-12-03T10:22:24.836Z,8.09
2022-12-03T10:25:23.992Z,8.08
2022-12-03T10:28:00.976Z,8.33
2022-12-03T10:30:28.994Z,8.30
2022-12-03T10:33:02.864Z,8.37
2022-12-03T10:35:44.668Z,8.14
2022-12-03T10:38:17.920Z,8.29
2022-12-03T10:40:45.527Z,8.13
2022-12-03T10:43:22.068Z,8.21
2022-12-03T10:46:10.403Z,8.38
2022-12-03T10:48:40.431Z,8.23
2022-12-03T10:51:25.132Z,7.66
2022-12-03T10:53:54.974Z,7.87
2022-12-03T10:56:29.463Z,8.26
2022-12-03T10:58:56.669Z,8.30
2022-12-03T11:01:25.911Z,8.41
2022-12-03T11:04:00.764Z,8.36
2022-12-03T11:06:33.269Z,8.33
2022-12-03T11:09:08.313Z,8.41
2022-12-03T11:11:35.881Z,8.25
2022-12-03T11:14:06.777Z,7.87
2022-12-03T11:16:39.798Z,8.26
2022-12-03T11:19:12.592Z,8.30
2022-12-03T11:22:07.137Z,8.29
2022-12-03T11:24:37.020Z,7.74
2022-12-03T11:27:03.709Z,8.20
2022-12-03T11:29:50.542Z,8.28
2022-12-03T11:32:39.382Z,8.30
2022-12-03T11:35:24.676Z,8.30
2022-12-03T11:37:54.739Z,7.79
2022-12-03T11:40:21.649Z,8.34
2022-12-03T11:42:49.337Z,7.77
2022-12-03T11:45:22.755Z,7.66
2022-12-03T11:48:18.113Z,8.38
2022-12-03T11:50:51.260Z,8.31
2022-12-03T11:53:22.302Z,8.06
2022-12-03T11:56:09.415Z,8.37
2022-12-03T11:58:38.852Z,7.99
2022-12-03T12:01:08.959Z,8.38
2022-12-03T12:03:48.272Z,8.39
2022-12-03T12:06:22.202Z,8.32
2022-12-03T12:08:53.088Z,8.45
2022-12-03T12:11:27.957Z,7.10
2022-12-03T12:14:05.608Z,7.89
2022-12-03T12:16:53.520Z,8.05
2022-12-03T12:19:41.309Z,8.51
2022-12-03T12:22:25.343Z,8.49
2022-12-03T12:25:01.339Z,7.56
2022-12-03T12:27:34.446Z,8.12
2022-12-03T12:30:05.324Z,7.89
2022-12-03T12:32:42.060Z,7.58
2022-12-03T12:35:33.008Z,7.80
2022-12-03T12:38:11.473Z,7.42
2022-12-03T12:40:42.381Z,7.25
2022-12-03T12:43:37.347Z,7.05
2022-12-03T12:49:00.634Z,7.74
2022-12-03T12:51:27.393Z,8.41
2022-12-03T12:53:54.216Z,8.43
2022-12-03T12:56:31.377Z,7.98
2022-12-03T12:59:12.857Z,7.31
2022-12-03T13:01:40.688Z,7.58
2022-12-03T13:04:17.643Z,7.55
2022-12-03T13:06:50.169Z,7.52
2022-12-03T13:09:24.450Z,8.50
2022-12-03T13:11:54.456Z,7.00
2022-12-03T13:14:26.795Z,8.02
2022-12-03T13:16:57.340Z,8.52
2022-12-03T13:19:52.176Z,7.96
2022-12-03T13:22:28.214Z,7.69
2022-12-03T13:25:00.277Z,8.05
2022-12-03T13:27:30.426Z,8.07
2022-12-03T13:30:01.180Z,8.09
2022-12-03T13:32:37.599Z,8.06
2022-12-03T13:35:24.951Z,8.04
2022-12-03T13:37:51.820Z,7.97
2022-12-03T13:40:33.066Z,7.14
2022-12-03T13:43:00.138Z,7.57
2022-12-03T13:45:41.751Z,8.40
2022-12-03T13:48:27.995Z,8.50
2022-12-03T13:50:55.386Z,7.92
2022-12-03T13:53:26.149Z,7.84
2022-12-03T13:56:03.607Z,7.81
2022-12-03T13:58:36.259Z,8.07
2022-12-03T14:01:03.123Z,8.09
2022-12-03T14:03:29.907Z,8.50
2022-12-03T14:05:56.913Z,8.23
2022-12-03T14:08:23.791Z,8.56
2022-12-03T14:10:54.270Z,8.68
2022-12-03T14:13:27.448Z,8.47
2022-12-03T14:15:58.015Z,7.83
2022-12-03T14:18:25.026Z,8.17
2022-12-03T14:20:54.695Z,7.96
2022-12-03T14:23:27.567Z,8.68
2022-12-03T14:25:55.698Z,8.67
2022-12-03T14:28:26.589Z,8.51
2022-12-03T14:30:55.249Z,8.68
2022-12-03T14:33:22.980Z,8.50
2022-12-03T14:35:55.916Z,8.68
2022-12-03T14:38:22.718Z,8.56
2022-12-03T14:40:49.574Z,7.57
2022-12-03T14:43:22.433Z,8.70
2022-12-03T14:45:49.231Z,7.71
2022-12-03T14:48:16.017Z,7.64
2022-12-03T14:50:46.224Z,7.39
2022-12-03T14:53:27.437Z,8.68
2022-12-03T14:55:57.259Z,8.66
2022-12-03T14:58:26.151Z,8.65
2022-12-03T15:00:52.814Z,8.47
2022-12-03T15:03:20.055Z,8.70
2022-12-03T15:05:52.689Z,8.53
2022-12-03T15:08:19.629Z,8.66
2022-12-03T15:10:46.451Z,8.55
2022-12-03T15:13:13.376Z,8.67
2022-12-03T15:15:43.237Z,7.87
2022-12-03T15:18:10.070Z,8.79
2022-12-03T15:20:39.956Z,8.40
2022-12-03T15:23:15.867Z,8.81
2022-12-03T15:25:56.945Z,8.28
2022-12-03T15:28:24.750Z,8.21
2022-12-03T15:30:51.682Z,8.68
2022-12-03T15:33:24.227Z,8.76
2022-12-03T15:35:51.014Z,7.49
2022-12-03T15:38:19.512Z,8.77
2022-12-03T15:40:51.493Z,8.60
2022-12-03T15:43:18.431Z,8.63
2022-12-03T15:45:51.699Z,8.77
2022-12-03T15:48:18.776Z,8.80
2022-12-03T15:50:45.694Z,8.34
2022-12-03T15:53:17.138Z,8.31
2022-12-03T15:55:43.962Z,8.32
2022-12-03T15:58:10.708Z,8.09
2022-12-03T16:00:37.504Z,8.74
2022-12-03T16:03:04.494Z,8.83
2022-12-03T16:05:31.271Z,8.71
2022-12-03T16:07:58.069Z,8.56
2022-12-03T16:10:24.845Z,8.49
2022-12-03T16:12:51.595Z,8.19
2022-12-03T16:15:26.698Z,8.70
2022-12-03T16:17:54.095Z,8.71
2022-12-03T16:20:20.808Z,8.87
2022-12-03T16:22:48.143Z,8.78
2022-12-03T16:25:17.597Z,8.74
2022-12-03T16:27:44.645Z,8.90
2022-12-03T16:30:15.726Z,8.90
2022-12-03T16:32:42.728Z,8.93
2022-12-03T16:35:10.673Z,8.51
2022-12-03T16:37:37.584Z,8.24
2022-12-03T16:40:04.933Z,8.95
2022-12-03T16:42:39.160Z,8.73
2022-12-03T16:45:09.938Z,8.14
2022-12-03T16:47:37.300Z,8.04
2022-12-03T16:50:17.971Z,8.47
2022-12-03T16:52:48.223Z,8.85
2022-12-03T16:55:20.966Z,8.34
2022-12-03T16:57:49.213Z,8.13
2022-12-03T17:02:56.517Z,8.69
2022-12-03T17:05:23.444Z,8.98
2022-12-03T17:07:52.026Z,8.72
2022-12-03T17:10:24.877Z,8.35
2022-12-03T17:15:40.025Z,8.47
2022-12-03T17:18:12.816Z,7.91
2022-12-03T17:20:40.833Z,8.46
2022-12-03T17:23:08.144Z,7.64
2022-12-03T17:25:35.460Z,9.04
2022-12-03T17:28:02.839Z,7.90
2022-12-03T17:30:36.166Z,8.13
2022-12-03T17:33:03.792Z,8.21
2022-12-03T17:35:32.425Z,7.96
2022-12-03T17:38:03.707Z,8.09
2022-12-03T17:40:30.401Z,8.41
2022-12-03T17:42:57.140Z,8.50
2022-12-03T17:45:24.006Z,8.40
2022-12-03T17:47:50.762Z,8.22
2022-12-03T17:50:17.523Z,8.48
2022-12-03T17:52:44.436Z,8.11
2022-12-03T17:55:15.734Z,9.07
2022-12-03T17:57:50.098Z,8.91
2022-12-03T18:00:20.585Z,8.86
2022-12-03T18:02:47.360Z,8.00
2022-12-03T18:05:14.380Z,8.49
2022-12-03T18:07:42.097Z,8.97
2022-12-03T18:10:09.371Z,7.62
2022-12-03T18:12:37.820Z,8.80
2022-12-03T18:15:05.157Z,8.34
2022-12-03T18:17:33.467Z,8.54
2022-12-03T18:20:00.313Z,8.17
2022-12-03T18:22:28.460Z,8.61
2022-12-03T18:24:55.732Z,8.50
2022-12-03T18:27:23.726Z,7.81
2022-12-03T18:29:52.977Z,8.97
2022-12-03T18:32:28.972Z,8.64
2022-12-03T18:34:57.492Z,8.20
2022-12-03T18:37:29.986Z,8.42
2022-12-03T18:39:59.468Z,8.17
2022-12-03T18:42:31.858Z,7.82
2022-12-03T18:44:58.790Z,8.04
2022-12-03T18:47:32.050Z,7.90
2022-12-03T18:50:02.378Z,8.17
2022-12-03T18:52:32.715Z,8.80
2022-12-03T18:55:00.207Z,7.76
2022-12-03T18:57:27.190Z,7.84
2022-12-03T18:59:54.125Z,8.13
2022-12-03T19:05:08.737Z,9.06
2022-12-03T19:07:37.637Z,8.58
2022-12-03T19:10:05.280Z,9.01
2022-12-03T19:12:33.191Z,8.73
2022-12-03T19:14:59.805Z,8.75
2022-12-03T19:17:27.576Z,9.09
2022-12-03T19:19:55.239Z,9.07
2022-12-03T19:22:23.052Z,9.10
2022-12-03T19:24:52.314Z,8.67
2022-12-03T19:27:19.511Z,8.90
2022-12-03T19:29:52.311Z,9.12
2022-12-03T19:32:23.311Z,8.64
2022-12-03T19:34:50.324Z,8.15
2022-12-03T19:37:17.057Z,8.97
2022-12-03T19:39:43.920Z,8.22
2022-12-03T19:42:10.576Z,8.89
2022-12-03T19:44:37.301Z,8.67
2022-12-03T19:47:03.964Z,8.95
2022-12-03T19:49:31.694Z,9.15
2022-12-03T19:51:58.415Z,9.07
2022-12-03T19:54:29.158Z,8.57
2022-12-03T19:56:57.262Z,8.71
2022-12-03T19:59:24.058Z,8.48
2022-12-03T20:01:50.903Z,9.03
2022-12-03T20:04:17.891Z,8.87
2022-12-03T20:06:45.536Z,9.05
2022-12-03T20:09:17.344Z,8.93
2022-12-03T20:11:46.008Z,9.17
2022-12-03T20:14:17.082Z,8.99
2022-12-03T20:16:45.305Z,8.40
2022-12-03T20:19:14.965Z,8.89
2022-12-03T20:21:43.467Z,9.05
2022-12-03T20:24:16.354Z,9.03
2022-12-03T20:26:43.503Z,8.95
2022-12-03T20:29:13.192Z,8.84
2022-12-03T20:31:40.283Z,8.97
2022-12-03T20:34:09.873Z,8.52
2022-12-03T20:36:37.166Z,8.83
2022-12-03T20:39:09.675Z,8.86
2022-12-03T20:41:47.003Z,9.08
2022-12-03T20:44:14.900Z,8.96
2022-12-03T20:46:44.368Z,9.11
2022-12-03T20:49:11.962Z,9.01
2022-12-03T20:51:47.900Z,9.04
2022-12-03T20:54:15.776Z,8.75
2022-12-03T20:56:42.462Z,8.95
2022-12-03T20:59:13.272Z,8.88
2022-12-03T21:01:47.127Z,8.70
2022-12-03T21:04:14.939Z,7.59
2022-12-03T21:06:45.450Z,8.74
2022-12-03T21:09:13.335Z,8.40
2022-12-03T21:11:43.407Z,8.23
2022-12-03T21:14:11.618Z,8.66
2022-12-03T21:17:08.455Z,8.69
2022-12-03T21:19:32.260Z,8.64
2022-12-03T21:22:00.106Z,9.08
2022-12-03T21:24:36.170Z,9.01
2022-12-03T21:27:04.527Z,8.55
2022-12-03T21:29:34.366Z,9.00
2022-12-03T21:32:04.279Z,7.80
2022-12-03T21:34:36.453Z,8.80
2022-12-03T21:37:06.666Z,8.77
2022-12-03T21:39:37.696Z,8.93
2022-12-03T21:42:25.910Z,8.92
2022-12-03T21:44:58.632Z,8.89
2022-12-03T21:47:25.825Z,8.93
2022-12-03T21:49:56.032Z,8.92
2022-12-03T21:52:22.937Z,8.94
2022-12-03T21:54:52.523Z,8.93
2022-12-03T21:57:20.900Z,8.52
2022-12-03T21:59:47.772Z,8.80
2022-12-03T22:02:15.137Z,8.85
2022-12-03T22:04:43.246Z,8.58
2022-12-03T22:07:10.908Z,8.86
2022-12-03T22:09:37.890Z,8.73
2022-12-03T22:12:04.921Z,8.89
2022-12-03T22:14:31.913Z,8.61
2022-12-03T22:16:58.833Z,8.38
2022-12-03T22:19:27.628Z,8.51
2022-12-03T22:21:57.824Z,9.05
2022-12-03T22:24:24.875Z,8.56
2022-12-03T22:26:53.894Z,9.04
2022-12-03T22:29:20.828Z,9.04
2022-12-03T22:31:47.562Z,8.54
2022-12-03T22:34:17.034Z,9.05
2022-12-03T22:36:43.913Z,7.90
2022-12-03T22:39:10.716Z,8.60
2022-12-03T22:41:40.099Z,8.96
2022-12-03T22:44:06.911Z,9.05
2022-12-03T22:46:36.171Z,8.88
2022-12-03T22:49:07.097Z,8.95
2022-12-03T22:51:35.254Z,8.99
2022-12-03T22:54:03.077Z,9.06
2022-12-03T22:56:30.785Z,9.05
2022-12-03T22:58:58.243Z,8.94
2022-12-03T23:01:28.485Z,9.04
2022-12-03T23:04:10.893Z,8.45
2022-12-03T23:06:38.738Z,9.05
2022-12-03T23:09:11.005Z,8.91
2022-12-03T23:11:41.488Z,8.97
2022-12-03T23:14:08.273Z,8.56
2022-12-03T23:16:35.259Z,8.56
2022-12-03T23:19:04.160Z,8.24
2022-12-03T23:21:33.625Z,8.50
2022-12-03T23:24:03.114Z,8.49
2022-12-03T23:26:29.959Z,8.29
2022-12-03T23:28:56.958Z,8.77
2022-12-03T23:31:29.990Z,8.96
2022-12-03T23:33:57.899Z,8.95
2022-12-03T23:36:26.913Z,8.88
2022-12-03T23:38:54.592Z,7.93
2022-12-03T23:41:23.421Z,8.00
2022-12-03T23:43:50.758Z,7.79
2022-12-03T23:46:26.045Z,8.85
2022-12-03T23:48:52.967Z,8.47
2022-12-03T23:51:23.062Z,8.44
2022-12-03T23:53:54.043Z,9.07
2022-12-03T23:56:26.974Z,8.96
2022-12-03T23:58:59.639Z,9.07
